createdAt,value
2018-12-23T00:02:11.947Z,101455.41
2018-12-23T00:04:39.416Z,101457.63
2018-12-23T00:07:06.852Z,101446.73
2018-12-23T00:09:34.458Z,101456.31
2018-12-23T00:12:01.898Z,101450.69
2018-12-23T00:14:29.330Z,101453.75
2018-12-23T00:16:56.753Z,101458.97
2018-12-23T00:19:24.194Z,101461.55
2018-12-23T00:21:51.623Z,101466.33
2018-12-23T00:24:19.047Z,101486.30
2018-12-23T00:26:46.494Z,101481.06
2018-12-23T00:29:14.085Z,101471.49
2018-12-23T00:31:41.581Z,101458.89
2018-12-23T00:34:09.064Z,101455.83
2018-12-23T00:36:36.560Z,101448.02
2018-12-23T00:39:05.933Z,101455.84
2018-12-23T00:41:33.351Z,101459.33
2018-12-23T00:44:01.070Z,101461.52
2018-12-23T00:46:28.486Z,101464.53
2018-12-23T00:48:55.935Z,101468.00
2018-12-23T00:51:23.375Z,101459.30
2018-12-23T00:53:50.848Z,101464.53
2018-12-23T00:56:18.298Z,101463.66
2018-12-23T00:58:45.756Z,101469.31
2018-12-23T01:01:13.191Z,101473.20
2018-12-23T01:03:40.645Z,101483.61
2018-12-23T01:06:08.071Z,101494.08
2018-12-23T01:08:35.492Z,101487.55
2018-12-23T01:11:02.962Z,101499.73
2018-12-23T01:13:30.390Z,101495.38
2018-12-23T01:15:57.828Z,101485.84
2018-12-23T01:18:25.270Z,101472.81
2018-12-23T01:20:52.703Z,101488.90
2018-12-23T01:23:20.246Z,101494.10
2018-12-23T01:25:47.676Z,101486.73
2018-12-23T01:28:15.326Z,101488.04
2018-12-23T01:30:42.748Z,101495.88
2018-12-23T01:33:10.211Z,101505.48
2018-12-23T01:35:37.625Z,101508.09
2018-12-23T01:38:05.070Z,101500.67
2018-12-23T01:40:32.525Z,101504.16
2018-12-23T01:42:59.938Z,101511.56
2018-12-23T01:45:27.385Z,101518.94
2018-12-23T01:47:54.830Z,101527.20
2018-12-23T01:50:22.270Z,101522.83
2018-12-23T01:52:49.678Z,101527.56
2018-12-23T01:55:17.119Z,101524.95
2018-12-23T01:57:44.597Z,101521.91
2018-12-23T02:00:12.032Z,101522.80
2018-12-23T02:02:39.466Z,101525.41
2018-12-23T02:05:06.888Z,101518.02
2018-12-23T02:07:34.340Z,101526.30
2018-12-23T02:10:01.864Z,101521.97
2018-12-23T02:12:29.288Z,101522.83
2018-12-23T02:14:56.721Z,101522.86
2018-12-23T02:17:24.174Z,101526.33
2018-12-23T02:19:51.755Z,101521.98
2018-12-23T02:22:19.275Z,101519.81
2018-12-23T02:24:46.806Z,101529.41
2018-12-23T02:27:14.218Z,101533.28
2018-12-23T02:29:41.659Z,101527.66
2018-12-23T02:32:09.114Z,101525.95
2018-12-23T02:34:36.609Z,101528.58
2018-12-23T02:37:04.038Z,101530.75
2018-12-23T02:39:31.572Z,101526.82
2018-12-23T02:41:59.019Z,101525.52
2018-12-23T02:44:26.455Z,101520.30
2018-12-23T02:46:53.894Z,101520.30
2018-12-23T02:49:21.314Z,101519.00
2018-12-23T02:51:48.766Z,101522.49
2018-12-23T02:54:16.307Z,101521.63
2018-12-23T02:56:43.763Z,101509.43
2018-12-23T02:59:11.187Z,101508.14
2018-12-23T03:01:38.639Z,101513.78
2018-12-23T03:04:06.234Z,101506.82
2018-12-23T03:06:33.719Z,101512.91
2018-12-23T03:09:01.192Z,101520.70
2018-12-23T03:11:28.655Z,101509.84
2018-12-23T03:13:56.187Z,101501.16
2018-12-23T03:16:23.628Z,101503.31
2018-12-23T03:18:51.071Z,101500.73
2018-12-23T03:21:18.492Z,101501.14
2018-12-23T03:23:45.929Z,101512.47
2018-12-23T03:26:13.355Z,101512.92
2018-12-23T03:28:40.803Z,101502.47
2018-12-23T03:31:08.232Z,101503.34
2018-12-23T03:33:35.775Z,101499.41
2018-12-23T03:36:03.201Z,101505.08
2018-12-23T03:38:30.651Z,101503.77
2018-12-23T03:40:58.063Z,101503.34
2018-12-23T03:43:25.495Z,101508.11
2018-12-23T03:45:52.926Z,101502.03
2018-12-23T03:48:20.589Z,101495.96
2018-12-23T03:50:48.031Z,101496.81
2018-12-23T03:53:15.535Z,101488.58
2018-12-23T03:55:42.992Z,101494.66
2018-12-23T03:58:10.439Z,101501.17
2018-12-23T04:00:37.864Z,101498.09
2018-12-23T04:03:05.344Z,101499.85
2018-12-23T04:05:32.835Z,101488.12
2018-12-23T04:08:00.299Z,101490.73
2018-12-23T04:10:27.768Z,101482.93
2018-12-23T04:12:55.179Z,101493.39
2018-12-23T04:15:22.622Z,101487.30
2018-12-23T04:17:50.046Z,101480.36
2018-12-23T04:20:17.509Z,101471.66
2018-12-23T04:22:45.085Z,101471.64
2018-12-23T04:25:12.523Z,101482.09
2018-12-23T04:27:39.939Z,101475.58
2018-12-23T04:30:07.530Z,101478.19
2018-12-23T04:32:34.947Z,101481.67
2018-12-23T04:35:02.391Z,101478.63
2018-12-23T04:37:29.811Z,101471.23
2018-12-23T04:39:57.259Z,101476.05
2018-12-23T04:42:24.705Z,101479.06
2018-12-23T04:44:52.131Z,101473.42
2018-12-23T04:47:19.618Z,101469.08
2018-12-23T04:49:47.046Z,101464.70
2018-12-23T04:52:14.488Z,101454.72
2018-12-23T04:54:41.908Z,101457.78
2018-12-23T04:57:09.353Z,101463.42
2018-12-23T04:59:36.758Z,101450.81
2018-12-23T05:02:04.202Z,101458.65
2018-12-23T05:04:31.844Z,101456.89
2018-12-23T05:06:59.280Z,101454.30
2018-12-23T05:09:26.838Z,101450.81
2018-12-23T05:11:54.300Z,101442.12
2018-12-23T05:14:21.741Z,101443.44
2018-12-23T05:16:49.196Z,101444.73
2018-12-23T05:19:16.604Z,101446.91
2018-12-23T05:21:44.047Z,101446.93
2018-12-23T05:24:11.573Z,101444.74
2018-12-23T05:26:39.025Z,101446.48
2018-12-23T05:29:06.540Z,101455.62
2018-12-23T05:31:34.022Z,101444.29
2018-12-23T05:34:01.522Z,101446.48
2018-12-23T05:36:29.169Z,101450.83
2018-12-23T05:38:56.628Z,101445.62
2018-12-23T05:41:24.250Z,101451.27
2018-12-23T05:43:51.752Z,101446.93
2018-12-23T05:46:19.175Z,101450.41
2018-12-23T05:48:46.706Z,101451.27
2018-12-23T05:51:14.122Z,101451.27
2018-12-23T05:53:41.579Z,101442.58
2018-12-23T05:56:09.024Z,101441.27
2018-12-23T05:58:36.455Z,101439.09
2018-12-23T06:01:03.877Z,101435.19
2018-12-23T06:03:31.317Z,101438.24
2018-12-23T06:05:58.744Z,101438.67
2018-12-23T06:08:26.174Z,101440.00
2018-12-23T06:10:53.606Z,101439.99
2018-12-23T06:13:21.035Z,101436.94
2018-12-23T06:15:48.478Z,101436.94
2018-12-23T06:18:15.911Z,101440.86
2018-12-23T06:20:43.427Z,101436.52
2018-12-23T06:23:10.850Z,101437.81
2018-12-23T06:25:38.391Z,101439.12
2018-12-23T06:28:05.820Z,101444.36
2018-12-23T06:30:33.251Z,101436.50
2018-12-23T06:33:00.688Z,101441.73
2018-12-23T06:35:28.135Z,101440.87
2018-12-23T06:37:55.573Z,101443.03
2018-12-23T06:40:23.014Z,101442.62
2018-12-23T06:42:50.443Z,101432.61
2018-12-23T06:45:17.892Z,101432.59
2018-12-23T06:47:45.327Z,101434.33
2018-12-23T06:50:12.759Z,101429.53
2018-12-23T06:52:40.173Z,101430.86
2018-12-23T06:55:07.634Z,101429.11
2018-12-23T06:57:35.081Z,101435.22
2018-12-23T07:00:02.613Z,101429.13
2018-12-23T07:02:30.034Z,101422.16
2018-12-23T07:04:57.490Z,101419.55
2018-12-23T07:07:25.091Z,101422.59
2018-12-23T07:09:52.545Z,101420.86
2018-12-23T07:12:19.996Z,101419.54
2018-12-23T07:14:47.708Z,101416.50
2018-12-23T07:17:15.165Z,101416.48
2018-12-23T07:19:42.577Z,101417.81
2018-12-23T07:22:10.124Z,101419.56
2018-12-23T07:24:37.558Z,101415.63
2018-12-23T07:27:05.011Z,101422.58
2018-12-23T07:29:32.468Z,101425.20
2018-12-23T07:31:59.908Z,101425.64
2018-12-23T07:34:27.330Z,101425.62
2018-12-23T07:36:54.766Z,101429.98
2018-12-23T07:39:22.179Z,101430.44
2018-12-23T07:41:49.779Z,101426.95
2018-12-23T07:44:17.217Z,101423.03
2018-12-23T07:46:44.889Z,101419.09
2018-12-23T07:49:12.334Z,101403.88
2018-12-23T07:51:39.801Z,101405.62
2018-12-23T07:54:07.228Z,101409.10
2018-12-23T07:56:34.657Z,101401.72
2018-12-23T07:59:02.075Z,101400.81
2018-12-23T08:01:29.683Z,101408.23
2018-12-23T08:03:57.111Z,101399.97
2018-12-23T08:06:24.545Z,101398.67
2018-12-23T08:08:52.019Z,101403.44
2018-12-23T08:11:19.440Z,101397.80
2018-12-23T08:13:46.889Z,101391.26
2018-12-23T08:16:14.478Z,101392.55
2018-12-23T08:18:41.953Z,101399.53
2018-12-23T08:21:09.398Z,101391.70
2018-12-23T08:23:36.847Z,101389.11
2018-12-23T08:26:04.269Z,101387.35
2018-12-23T08:28:31.758Z,101395.19
2018-12-23T08:30:59.188Z,101393.01
2018-12-23T08:33:26.647Z,101399.55
2018-12-23T08:35:54.073Z,101406.06
2018-12-23T08:38:21.501Z,101403.45
2018-12-23T08:40:48.958Z,101396.52
2018-12-23T08:43:16.415Z,101400.86
2018-12-23T08:45:44.072Z,101395.63
2018-12-23T08:48:11.526Z,101398.67
2018-12-23T08:50:39.078Z,101393.45
2018-12-23T08:53:06.499Z,101394.75
2018-12-23T08:55:34.016Z,101393.02
2018-12-23T08:58:01.435Z,101397.38
2018-12-23T09:00:28.855Z,101403.47
2018-12-23T09:02:56.316Z,101403.02
2018-12-23T09:05:23.748Z,101391.28
2018-12-23T09:07:53.141Z,101394.31
2018-12-23T09:10:20.830Z,101392.13
2018-12-23T09:12:48.248Z,101392.16
2018-12-23T09:15:15.699Z,101389.54
2018-12-23T09:17:43.484Z,101379.94
2018-12-23T09:20:10.914Z,101379.94
2018-12-23T09:22:38.349Z,101384.73
2018-12-23T09:25:05.796Z,101374.72
2018-12-23T09:27:33.250Z,101378.62
2018-12-23T09:30:00.663Z,101377.75
2018-12-23T09:32:28.127Z,101376.00
2018-12-23T09:34:55.525Z,101362.93
2018-12-23T09:37:22.997Z,101368.59
2018-12-23T09:39:50.413Z,101369.47
2018-12-23T09:42:17.867Z,101365.55
2018-12-23T09:44:45.297Z,101363.81
2018-12-23T09:47:12.833Z,101368.15
2018-12-23T09:49:40.273Z,101367.29
2018-12-23T09:52:07.721Z,101364.67
2018-12-23T09:54:35.159Z,101361.64
2018-12-23T09:57:02.603Z,101350.30
2018-12-23T09:59:30.036Z,101344.20
2018-12-23T10:01:57.459Z,101338.99
2018-12-23T10:04:24.904Z,101338.53
2018-12-23T10:06:52.505Z,101336.81
2018-12-23T10:09:19.960Z,101327.67
2018-12-23T10:11:47.388Z,101317.22
2018-12-23T10:14:14.834Z,101321.13
2018-12-23T10:16:42.461Z,101315.88
2018-12-23T10:19:10.271Z,101318.08
2018-12-23T10:21:37.829Z,101313.28
2018-12-23T10:24:05.301Z,101302.86
2018-12-23T10:26:32.754Z,101311.13
2018-12-23T10:29:00.201Z,101309.36
2018-12-23T10:31:27.619Z,101303.25
2018-12-23T10:33:55.859Z,101301.53
2018-12-23T10:36:23.288Z,101299.78
2018-12-23T10:38:50.743Z,101295.86
2018-12-23T10:41:18.187Z,101297.16
2018-12-23T10:43:45.840Z,101288.45
2018-12-23T10:46:13.254Z,101290.66
2018-12-23T10:48:40.686Z,101287.61
2018-12-23T10:51:08.312Z,101274.55
2018-12-23T10:53:35.763Z,101268.02
2018-12-23T10:56:03.184Z,101261.06
2018-12-23T10:58:30.614Z,101258.00
2018-12-23T11:00:58.056Z,101261.48
2018-12-23T11:03:25.586Z,101255.38
2018-12-23T11:05:53.048Z,101256.26
2018-12-23T11:08:26.906Z,101255.82
2018-12-23T11:10:49.967Z,101242.32
2018-12-23T11:13:21.608Z,101245.39
2018-12-23T11:15:49.240Z,101239.75
2018-12-23T11:18:16.661Z,101236.28
2018-12-23T11:20:44.110Z,101217.55
2018-12-23T11:23:11.549Z,101219.72
2018-12-23T11:25:39.040Z,101219.29
2018-12-23T11:28:06.471Z,101211.88
2018-12-23T11:30:33.947Z,101201.02
2018-12-23T11:33:01.390Z,101193.63
2018-12-23T11:35:28.850Z,101189.28
2018-12-23T11:37:56.320Z,101182.75
2018-12-23T11:40:26.702Z,101176.66
2018-12-23T11:42:54.146Z,101173.17
2018-12-23T11:45:21.599Z,101170.53
2018-12-23T11:47:49.351Z,101168.34
2018-12-23T11:50:16.788Z,101167.89
2018-12-23T11:52:44.251Z,101166.56
2018-12-23T11:55:11.822Z,101159.20
2018-12-23T11:57:39.503Z,101163.13
2018-12-23T12:00:07.040Z,101154.38
2018-12-23T12:02:34.486Z,101147.45
2018-12-23T12:05:01.934Z,101146.13
2018-12-23T12:07:29.379Z,101135.22
2018-12-23T12:09:56.925Z,101134.34
2018-12-23T12:12:24.523Z,101136.95
2018-12-23T12:14:51.959Z,101129.98
2018-12-23T12:17:19.409Z,101120.00
2018-12-23T12:19:46.861Z,101121.75
2018-12-23T12:22:14.324Z,101113.94
2018-12-23T12:24:41.772Z,101113.50
2018-12-23T12:27:09.217Z,101109.56
2018-12-23T12:29:36.663Z,101106.10
2018-12-23T12:32:04.150Z,101099.12
2018-12-23T12:34:31.617Z,101099.55
2018-12-23T12:36:59.045Z,101098.66
2018-12-23T12:39:26.584Z,101089.55
2018-12-23T12:41:54.035Z,101076.94
2018-12-23T12:44:21.503Z,101077.37
2018-12-23T12:46:48.927Z,101079.55
2018-12-23T12:49:16.495Z,101068.68
2018-12-23T12:51:43.952Z,101056.92
2018-12-23T12:54:11.412Z,101058.66
2018-12-23T12:56:38.847Z,101038.64
2018-12-23T12:59:06.412Z,101030.34
2018-12-23T13:01:33.813Z,101018.98
2018-12-23T13:04:01.267Z,101020.27
2018-12-23T13:06:28.713Z,101014.59
2018-12-23T13:09:00.471Z,101011.52
2018-12-23T13:11:25.749Z,101002.38
2018-12-23T13:13:53.197Z,101007.14
2018-12-23T13:16:20.649Z,100999.30
2018-12-23T13:18:48.162Z,100993.63
2018-12-23T13:21:15.808Z,100994.95
2018-12-23T13:23:43.249Z,100984.08
2018-12-23T13:26:10.725Z,100975.78
2018-12-23T13:28:38.165Z,100969.25
2018-12-23T13:31:05.668Z,100974.91
2018-12-23T13:33:33.155Z,100970.53
2018-12-23T13:36:00.672Z,100949.16
2018-12-23T13:38:28.156Z,100950.89
2018-12-23T13:40:59.662Z,100952.63
2018-12-23T13:43:39.007Z,100951.34
2018-12-23T13:49:56.173Z,100925.14
2018-12-23T13:52:37.075Z,100922.99
2018-12-23T13:55:11.266Z,100919.95
2018-12-23T13:58:07.523Z,100919.95
2018-12-23T14:00:54.128Z,100912.54
2018-12-23T14:03:28.359Z,100902.08
2018-12-23T14:06:11.861Z,100902.08
2018-12-23T14:08:49.877Z,100895.55
2018-12-23T14:11:39.894Z,100885.98
2018-12-23T14:14:08.448Z,100880.34
2018-12-23T14:16:37.062Z,100890.33
2018-12-23T14:19:05.671Z,100888.64
2018-12-23T14:21:34.197Z,100867.77
2018-12-23T14:24:02.757Z,100867.77
2018-12-23T14:26:31.359Z,100853.02
2018-12-23T14:29:00.135Z,100853.02
2018-12-23T14:31:28.653Z,100854.28
2018-12-23T14:33:57.761Z,100847.76
2018-12-23T14:36:26.322Z,100844.72
2018-12-23T14:38:55.628Z,100844.72
2018-12-23T14:41:24.245Z,100822.59
2018-12-23T14:43:52.886Z,100822.59
2018-12-23T14:46:21.509Z,100823.91
2018-12-23T14:48:50.082Z,100819.98
2018-12-23T14:51:18.618Z,100817.38
2018-12-23T14:53:47.171Z,100818.69
2018-12-23T14:56:15.790Z,100810.47
2018-12-23T14:58:44.437Z,100806.13
2018-12-23T15:01:13.100Z,100813.13
2018-12-23T15:03:41.658Z,100807.02
2018-12-23T15:06:10.302Z,100794.80
2018-12-23T15:08:38.852Z,100781.73
2018-12-23T15:11:07.437Z,100783.50
2018-12-23T15:13:36.115Z,100785.70
2018-12-23T15:16:04.717Z,100777.02
2018-12-23T15:18:34.404Z,100768.76
2018-12-23T15:21:03.134Z,100774.45
2018-12-23T15:23:31.646Z,100774.50
2018-12-23T15:26:00.355Z,100769.70
2018-12-23T15:28:28.948Z,100767.09
2018-12-23T15:30:57.590Z,100774.08
2018-12-23T15:33:26.173Z,100778.92
2018-12-23T15:35:54.833Z,100778.50
2018-12-23T15:38:23.391Z,100770.25
2018-12-23T15:40:51.943Z,100753.73
2018-12-23T15:43:20.462Z,100753.31
2018-12-23T15:45:49.180Z,100743.33
2018-12-23T15:48:17.783Z,100738.08
2018-12-23T15:50:46.558Z,100732.39
2018-12-23T15:53:15.126Z,100731.55
2018-12-23T15:55:43.656Z,100733.77
2018-12-23T15:58:12.275Z,100718.95
2018-12-23T16:00:44.057Z,100719.34
2018-12-23T16:03:12.774Z,100709.86
2018-12-23T16:05:41.378Z,100707.75
2018-12-23T16:08:09.944Z,100700.73
2018-12-23T16:10:38.503Z,100697.64
2018-12-23T16:13:07.057Z,100689.81
2018-12-23T16:15:35.570Z,100686.73
2018-12-23T16:18:04.186Z,100685.86
2018-12-23T16:20:32.872Z,100681.98
2018-12-23T16:23:01.583Z,100681.98
2018-12-23T16:25:30.241Z,100673.27
2018-12-23T16:27:58.859Z,100678.95
2018-12-23T16:30:27.481Z,100680.27
2018-12-23T16:32:56.149Z,100676.77
2018-12-23T16:35:24.833Z,100681.98
2018-12-23T16:37:53.358Z,100678.95
2018-12-23T16:40:21.927Z,100683.75
2018-12-23T16:42:50.514Z,100678.95
2018-12-23T16:45:19.162Z,100668.94
2018-12-23T16:47:47.688Z,100667.20
2018-12-23T16:50:16.471Z,100655.45
2018-12-23T16:52:45.298Z,100638.45
2018-12-23T16:55:13.913Z,100644.13
2018-12-23T16:57:42.507Z,100651.96
2018-12-23T17:00:13.257Z,100653.70
2018-12-23T17:02:41.848Z,100651.95
2018-12-23T17:05:10.562Z,100653.68
2018-12-23T17:07:39.094Z,100646.27
2018-12-23T17:10:08.622Z,100653.64
2018-12-23T17:12:37.237Z,100643.61
2018-12-23T17:15:06.727Z,100629.25
2018-12-23T17:17:35.316Z,100629.21
2018-12-23T17:20:05.447Z,100627.90
2018-12-23T17:22:34.217Z,100634.01
2018-12-23T17:25:02.999Z,100637.46
2018-12-23T17:27:32.000Z,100627.86
2018-12-23T17:30:00.554Z,100627.86
2018-12-23T17:32:29.218Z,100627.42
2018-12-23T17:34:57.853Z,100609.16
2018-12-23T17:37:26.503Z,100609.16
2018-12-23T17:39:55.248Z,100604.34
2018-12-23T17:42:23.802Z,100606.91
2018-12-23T17:44:52.323Z,100614.27
2018-12-23T17:47:20.938Z,100608.16
2018-12-23T17:49:49.567Z,100590.77
2018-12-23T17:52:23.153Z,100585.97
2018-12-23T17:54:48.487Z,100585.97
2018-12-23T17:57:17.061Z,100599.89
2018-12-23T17:59:45.589Z,100599.89
2018-12-23T18:02:14.230Z,100594.67
2018-12-23T18:04:46.011Z,100597.75
2018-12-23T18:07:14.582Z,100587.26
2018-12-23T18:09:44.294Z,100585.09
2018-12-23T18:12:12.952Z,100590.27
2018-12-23T18:14:41.472Z,100588.09
2018-12-23T18:17:10.249Z,100589.80
2018-12-23T18:19:38.809Z,100588.45
2018-12-23T18:22:07.360Z,100595.39
2018-12-23T18:24:36.085Z,100594.55
2018-12-23T18:27:04.701Z,100588.48
2018-12-23T18:29:33.269Z,100588.48
2018-12-23T18:32:01.993Z,100582.38
2018-12-23T18:34:30.588Z,100587.14
2018-12-23T18:36:59.184Z,100591.53
2018-12-23T18:39:27.772Z,100588.61
2018-12-23T18:41:56.323Z,100592.08
2018-12-23T18:44:24.855Z,100582.52
2018-12-23T18:46:53.405Z,100579.00
2018-12-23T18:49:21.968Z,100572.41
2018-12-23T18:51:50.590Z,100572.41
2018-12-23T18:54:19.153Z,100579.00
2018-12-23T18:56:47.724Z,100583.28
2018-12-23T18:59:16.425Z,100583.28
2018-12-23T19:01:45.139Z,100588.44
2018-12-23T19:04:13.686Z,100581.84
2018-12-23T19:06:42.255Z,100572.66
2018-12-23T19:09:10.972Z,100576.52
2018-12-23T19:11:51.663Z,100578.66
2018-12-23T19:14:39.837Z,100574.30
2018-12-23T19:17:23.617Z,100579.07
2018-12-23T19:20:25.185Z,100582.09
2018-12-23T19:23:02.347Z,100577.75
2018-12-23T19:25:40.890Z,100577.27
2018-12-23T19:28:18.486Z,100577.27
2018-12-23T19:31:01.850Z,100575.92
2018-12-23T19:33:42.104Z,100574.14
2018-12-23T19:36:25.605Z,100580.23
2018-12-23T19:39:12.193Z,100571.88
2018-12-23T19:42:01.691Z,100562.30
2018-12-23T19:44:36.164Z,100567.00
2018-12-23T19:47:32.429Z,100565.28
2018-12-23T19:50:20.982Z,100570.50
2018-12-23T19:53:13.751Z,100572.64
2018-12-23T19:56:03.263Z,100579.63
2018-12-23T19:58:43.624Z,100572.16
2018-12-23T20:01:18.064Z,100571.73
2018-12-23T20:03:56.646Z,100572.58
2018-12-23T20:06:44.600Z,100576.48
2018-12-23T20:09:22.018Z,100581.73
2018-12-23T20:12:02.715Z,100616.58
2018-12-23T20:14:40.239Z,100598.43
2018-12-23T20:17:27.173Z,100609.47
2018-12-23T20:20:32.417Z,100622.65
2018-12-23T20:23:03.999Z,100627.52
2018-12-23T20:25:44.657Z,100623.17
2018-12-23T20:28:36.699Z,100627.57
2018-12-23T20:31:24.661Z,100638.53
2018-12-23T20:34:08.302Z,100652.54
2018-12-23T20:36:54.310Z,100655.27
2018-12-23T20:39:25.892Z,100656.90
2018-12-23T20:42:23.189Z,100681.83
2018-12-23T20:45:26.793Z,100686.23
2018-12-23T20:48:01.386Z,100684.51
2018-12-23T20:50:44.957Z,100698.97
2018-12-23T20:53:37.103Z,100702.92
2018-12-23T20:56:08.669Z,100713.74
2018-12-23T20:58:45.919Z,100701.93
2018-12-23T21:01:38.863Z,100711.09
2018-12-23T21:04:22.135Z,100719.84
2018-12-23T21:07:09.151Z,100730.31
2018-12-23T21:09:46.679Z,100736.98
2018-12-23T21:12:32.810Z,100740.98
2018-12-23T21:15:07.344Z,100746.23
2018-12-23T21:17:41.847Z,100743.14
2018-12-23T21:20:16.109Z,100736.25
2018-12-23T21:22:59.145Z,100750.59
2018-12-23T21:25:48.677Z,100758.94
2018-12-23T21:28:23.194Z,100755.94
2018-12-23T21:30:57.792Z,100768.95
2018-12-23T21:33:32.111Z,100771.56
2018-12-23T21:36:21.810Z,100770.73
2018-12-23T21:39:05.138Z,100779.89
2018-12-23T21:41:36.706Z,100789.45
2018-12-23T21:44:08.324Z,100817.69
2018-12-23T21:47:05.075Z,100832.88
2018-12-23T21:49:58.457Z,100841.16
2018-12-23T21:53:00.867Z,100858.95
2018-12-23T21:55:44.571Z,100862.89
2018-12-23T21:58:19.077Z,100898.92
2018-12-23T22:01:02.931Z,100905.43
2018-12-23T22:03:40.327Z,100908.03
2018-12-23T22:06:31.652Z,100901.09
2018-12-23T22:09:24.664Z,100915.82
2018-12-23T22:12:01.778Z,100919.74
2018-12-23T22:14:30.316Z,100927.57
2018-12-23T22:16:58.935Z,100932.78
2018-12-23T22:19:27.549Z,100940.59
2018-12-23T22:21:56.140Z,100946.65
2018-12-23T22:24:24.670Z,100936.67
2018-12-23T22:26:55.497Z,100945.37
2018-12-23T22:29:23.728Z,100957.08
2018-12-23T22:31:52.280Z,100955.34
2018-12-23T22:34:20.816Z,100954.48
2018-12-23T22:36:49.537Z,100960.97
2018-12-23T22:39:18.046Z,100970.11
2018-12-23T22:41:46.620Z,100993.53
2018-12-23T22:44:15.135Z,101011.77
2018-12-23T22:46:43.766Z,101003.97
2018-12-23T22:49:12.304Z,100982.27
2018-12-23T22:51:40.833Z,100992.67
2018-12-23T22:54:09.364Z,101006.12
2018-12-23T22:56:37.890Z,101013.95
2018-12-23T22:59:06.450Z,101023.92
2018-12-23T23:01:35.059Z,101025.67
2018-12-23T23:04:03.615Z,101054.75
2018-12-23T23:06:32.120Z,101043.04
2018-12-23T23:09:00.795Z,101045.63
2018-12-23T23:11:29.334Z,101069.02
2018-12-23T23:13:57.872Z,101094.60
2018-12-23T23:16:26.416Z,101071.62
2018-12-23T23:18:58.006Z,101085.05
2018-12-23T23:21:26.557Z,101088.95
2018-12-23T23:23:55.110Z,101106.71
2018-12-23T23:26:23.658Z,101111.90
2018-12-23T23:28:52.259Z,101102.75
2018-12-23T23:31:20.868Z,101116.17
2018-12-23T23:33:49.543Z,101121.79
2018-12-23T23:36:18.248Z,101114.02
2018-12-23T23:38:46.791Z,101119.20
2018-12-23T23:41:15.383Z,101129.17
2018-12-23T23:43:43.916Z,101123.95
2018-12-23T23:46:12.627Z,101130.42
2018-12-23T23:48:41.145Z,101143.02
2018-12-23T23:51:09.693Z,101149.11
2018-12-23T23:53:38.220Z,101148.25
2018-12-23T23:56:06.853Z,101156.91
2018-12-23T23:58:35.371Z,101160.83
